Time;durP1;ratioP1;P1;durP2;ratioP2;P2;SDS_P1;SDS_P2;PMS_P1;PMS_P2;Temp;Humidity;BMP_temperature;BMP_pressure;BME280_temperature;BME280_humidity;BME280_pressure;Samples;Min_cycle;Max_cycle;Signal;HPM_P1;HPM_P2
2021/05/24 00:00:48;;;;;;;2.75;1.65;;;;;;;7.72;84.00;96694.63;4980023;28;20108;-56
2021/05/24 00:03:14;;;;;;;6.97;1.83;;;;;;;7.66;85.57;96694.88;4975801;28;20483;-55
2021/05/24 00:05:39;;;;;;;2.85;1.50;;;;;;;7.59;84.83;96685.69;4975682;28;20043;-58
2021/05/24 00:08:05;;;;;;;3.00;1.80;;;;;;;7.42;86.63;96690.31;4976223;28;20050;-61
2021/05/24 00:10:34;;;;;;;3.15;1.83;;;;;;;7.23;87.37;96676.53;4981701;28;20109;-58
2021/05/24 00:13:03;;;;;;;4.13;1.80;;;;;;;7.06;88.79;96683.03;4980105;28;20048;-58
2021/05/24 00:15:32;;;;;;;3.45;1.75;;;;;;;7.05;89.60;96676.00;4962085;28;20384;-59
2021/05/24 00:17:58;;;;;;;5.33;1.80;;;;;;;7.06;88.98;96681.09;4961990;28;20046;-59
2021/05/24 00:20:28;;;;;;;2.47;1.63;;;;;;;7.08;89.31;96678.03;4964674;28;20855;-58
2021/05/24 00:22:54;;;;;;;3.17;1.88;;;;;;;7.17;89.17;96673.25;4979533;28;20053;-58
2021/05/24 00:25:20;;;;;;;5.70;2.17;;;;;;;7.13;88.06;96664.19;4976335;28;20046;-59
2021/05/24 00:27:46;;;;;;;4.25;1.73;;;;;;;7.06;88.50;96677.59;4979929;28;20066;-58
2021/05/24 00:30:13;;;;;;;2.22;1.60;;;;;;;6.97;89.15;96660.56;4967868;28;20050;-57
2021/05/24 00:32:38;;;;;;;5.63;1.92;;;;;;;7.00;89.55;96652.50;4979866;28;20035;-57
2021/05/24 00:35:04;;;;;;;7.78;2.17;;;;;;;6.81;91.26;96650.41;4977934;28;20049;-66
2021/05/24 00:37:30;;;;;;;4.22;2.35;;;;;;;6.58;92.36;96641.94;4981205;28;20054;-60
2021/05/24 00:39:55;;;;;;;5.50;2.13;;;;;;;6.46;93.50;96625.63;4982112;28;20085;-61
2021/05/24 00:42:21;;;;;;;6.40;2.38;;;;;;;6.44;94.23;96630.59;4975218;28;20533;-62
2021/05/24 00:44:47;;;;;;;3.33;2.80;;;;;;;6.33;95.28;96622.09;4970243;28;20053;-59
2021/05/24 00:47:12;;;;;;;4.82;2.50;;;;;;;6.24;95.42;96610.56;4963406;28;20125;-59
2021/05/24 00:49:38;;;;;;;7.03;2.45;;;;;;;6.27;95.00;96607.94;4972852;28;20049;-59
2021/05/24 00:52:04;;;;;;;4.45;2.50;;;;;;;6.35;95.27;96598.06;4977280;28;20495;-61
2021/05/24 00:54:29;;;;;;;3.55;2.53;;;;;;;6.50;94.59;96591.94;4980261;28;20054;-57
2021/05/24 00:56:58;;;;;;;5.82;2.25;;;;;;;6.61;94.82;96592.28;4979064;28;20057;-56
2021/05/24 00:59:25;;;;;;;7.10;2.30;;;;;;;6.67;93.83;96588.16;4975080;28;20046;-59
2021/05/24 01:01:51;;;;;;;5.00;2.35;;;;;;;6.75;93.38;96569.31;4979869;28;20381;-60
2021/05/24 01:04:18;;;;;;;5.40;2.67;;;;;;;6.89;93.23;96567.00;4966927;28;20045;-59
2021/05/24 01:06:45;;;;;;;4.53;2.70;;;;;;;7.12;92.17;96569.22;4980103;28;20046;-57
2021/05/24 01:09:10;;;;;;;3.85;2.50;;;;;;;7.29;91.18;96577.06;4963216;28;20045;-60
2021/05/24 01:11:36;;;;;;;3.58;2.00;;;;;;;7.44;90.06;96570.06;4968854;28;20046;-58
2021/05/24 01:14:03;;;;;;;4.50;2.00;;;;;;;7.43;88.19;96571.97;4976112;28;20054;-64
2021/05/24 01:16:30;;;;;;;3.95;2.05;;;;;;;7.36;87.61;96560.13;4973022;28;20069;-59
2021/05/24 01:18:56;;;;;;;3.53;2.20;;;;;;;7.31;87.75;96560.34;4970987;28;20136;-57
2021/05/24 01:21:23;;;;;;;2.78;1.80;;;;;;;7.24;87.72;96561.78;4972421;28;20503;-59
2021/05/24 01:23:49;;;;;;;3.03;1.90;;;;;;;7.20;88.10;96560.06;4972497;28;20045;-59
2021/05/24 01:26:15;;;;;;;4.40;2.00;;;;;;;7.24;87.73;96552.81;4975354;28;20042;-60
2021/05/24 01:28:42;;;;;;;2.88;1.70;;;;;;;7.18;87.22;96559.63;4980638;28;20053;-59
2021/05/24 01:31:08;;;;;;;3.38;1.60;;;;;;;7.24;87.55;96548.16;4974984;28;20053;-61
2021/05/24 01:33:35;;;;;;;4.95;1.73;;;;;;;7.53;87.07;96545.38;4976310;28;20046;-56
2021/05/24 01:36:03;;;;;;;2.90;1.60;;;;;;;7.69;85.58;96540.72;4983840;28;20058;-59
2021/05/24 01:38:30;;;;;;;3.45;1.42;;;;;;;7.77;84.78;96537.03;4982007;28;20117;-61
2021/05/24 01:40:55;;;;;;;2.05;1.67;;;;;;;7.71;85.21;96540.38;4983364;28;20042;-58
2021/05/24 01:43:21;;;;;;;5.43;1.95;;;;;;;7.69;84.85;96537.19;4975895;28;20055;-58
2021/05/24 01:45:46;;;;;;;3.35;1.63;;;;;;;7.72;85.13;96529.09;4983220;28;20065;-59
2021/05/24 01:48:12;;;;;;;3.60;1.77;;;;;;;7.63;85.03;96525.75;4975836;28;20065;-57
2021/05/24 01:50:38;;;;;;;6.30;1.85;;;;;;;7.62;85.14;96516.81;4975259;28;20043;-59
2021/05/24 01:53:04;;;;;;;2.95;1.90;;;;;;;7.62;85.26;96527.72;4974299;28;20045;-60
2021/05/24 01:55:30;;;;;;;2.97;1.83;;;;;;;7.64;85.47;96525.41;4968636;28;20078;-60
2021/05/24 01:57:56;;;;;;;2.33;1.60;;;;;;;7.45;85.74;96517.13;4981582;28;20507;-59
2021/05/24 02:00:24;;;;;;;2.72;1.83;;;;;;;7.34;86.85;96518.81;4978777;28;20480;-60
2021/05/24 02:02:51;;;;;;;3.30;1.90;;;;;;;7.20;87.04;96508.31;4980934;28;20064;-60
2021/05/24 02:05:17;;;;;;;6.90;1.60;;;;;;;7.30;87.40;96496.13;4978557;28;20038;-59
2021/05/24 02:07:44;;;;;;;2.85;1.58;;;;;;;7.40;86.87;96492.88;4983811;28;20089;-60
2021/05/24 02:10:13;;;;;;;2.90;1.60;;;;;;;7.46;86.50;96505.09;4977274;28;20519;-61
2021/05/24 02:12:39;;;;;;;2.08;1.63;;;;;;;7.39;86.52;96511.16;4977630;28;20038;-60
2021/05/24 02:15:06;;;;;;;2.83;1.58;;;;;;;7.34;87.04;96538.66;4974362;28;20125;-62
2021/05/24 02:17:32;;;;;;;3.25;1.60;;;;;;;7.42;86.88;96529.53;4982624;28;20046;-61
2021/05/24 02:19:58;;;;;;;3.85;1.90;;;;;;;7.36;87.09;96521.97;4984954;28;20048;-57
2021/05/24 02:22:23;;;;;;;2.20;1.55;;;;;;;7.11;86.42;96505.75;4980770;28;20320;-54
2021/05/24 02:24:49;;;;;;;6.45;1.63;;;;;;;7.12;87.25;96501.13;4983484;28;20072;-60
2021/05/24 02:27:14;;;;;;;2.75;1.80;;;;;;;6.92;88.31;96506.44;4981261;28;20042;-56
2021/05/24 02:29:41;;;;;;;3.47;1.65;;;;;;;6.81;88.80;96508.84;4984860;28;20046;-57
2021/05/24 02:32:07;;;;;;;3.15;2.00;;;;;;;6.55;90.13;96505.78;4979342;28;20038;-63
2021/05/24 02:34:32;;;;;;;3.17;1.60;;;;;;;6.74;89.83;96499.72;4984333;28;20061;-60
2021/05/24 02:36:58;;;;;;;3.28;1.95;;;;;;;6.75;89.96;96507.50;4982109;28;20089;-58
2021/05/24 02:39:23;;;;;;;2.88;2.00;;;;;;;6.71;89.79;96509.34;4974177;28;20464;-59
2021/05/24 02:41:49;;;;;;;2.15;1.65;;;;;;;6.74;89.88;96503.22;4982679;28;20050;-61
2021/05/24 02:44:14;;;;;;;3.42;1.77;;;;;;;6.77;89.61;96509.88;4977154;28;20101;-59
2021/05/24 02:46:40;;;;;;;3.42;1.92;;;;;;;6.77;88.97;96520.78;4981345;28;20046;-57
2021/05/24 02:49:06;;;;;;;3.50;1.55;;;;;;;6.83;89.44;96522.13;4990675;28;20085;-59
2021/05/24 02:51:32;;;;;;;3.28;1.80;;;;;;;6.83;88.83;96513.97;4980142;28;20038;-59
2021/05/24 02:53:58;;;;;;;4.45;2.20;;;;;;;6.66;88.49;96510.38;4976069;28;20054;-57
2021/05/24 02:56:23;;;;;;;4.45;3.10;;;;;;;6.51;89.34;96497.50;4972023;28;20879;-58
2021/05/24 02:58:49;;;;;;;4.40;1.95;;;;;;;6.33;90.66;96488.81;4974427;28;20073;-59
2021/05/24 03:01:14;;;;;;;3.53;1.88;;;;;;;6.08;92.59;96480.69;4958232;28;20042;-55
2021/05/24 03:03:41;;;;;;;7.13;2.38;;;;;;;5.99;93.13;96485.47;4963186;28;20043;-58
2021/05/24 03:06:06;;;;;;;2.92;2.20;;;;;;;6.04;93.05;96473.59;4964977;28;20489;-61
2021/05/24 03:08:32;;;;;;;4.18;1.92;;;;;;;6.30;93.16;96470.47;4971146;28;20137;-59
2021/05/24 03:10:58;;;;;;;3.25;2.00;;;;;;;6.29;92.47;96477.84;4977441;28;20069;-58
2021/05/24 03:13:25;;;;;;;4.45;1.98;;;;;;;6.45;92.46;96467.03;4981970;28;20742;-58
2021/05/24 03:15:53;;;;;;;3.65;1.95;;;;;;;6.42;92.15;96473.16;4984196;28;20053;-56
2021/05/24 03:18:18;;;;;;;4.35;2.20;;;;;;;6.47;92.26;96478.34;4975787;28;20112;-60
2021/05/24 03:20:44;;;;;;;4.10;2.10;;;;;;;6.63;91.60;96475.69;4982573;28;20133;-58
2021/05/24 03:23:09;;;;;;;4.63;2.50;;;;;;;6.77;91.27;96469.06;4977717;28;20037;-59
2021/05/24 03:25:35;;;;;;;3.15;1.98;;;;;;;6.83;90.12;96463.00;4982466;28;20108;-57
2021/05/24 03:28:00;;;;;;;22.02;10.63;;;;;;;6.86;90.20;96465.06;4979141;28;20126;-57
2021/05/24 03:30:26;;;;;;;6.65;3.10;;;;;;;6.84;89.10;96459.16;4975065;28;20729;-56
2021/05/24 03:32:51;;;;;;;2.42;1.70;;;;;;;6.61;88.82;96456.22;4980656;28;20042;-58
2021/05/24 03:35:17;;;;;;;5.22;2.20;;;;;;;6.36;89.63;96446.56;4975600;28;20104;-59
2021/05/24 03:37:43;;;;;;;6.78;1.80;;;;;;;6.26;90.32;96454.03;4980311;28;20092;-56
2021/05/24 03:40:11;;;;;;;3.03;1.80;;;;;;;6.38;91.31;96450.50;4977762;28;20121;-56
2021/05/24 03:42:37;;;;;;;3.97;2.28;;;;;;;6.51;91.12;96457.47;4980687;28;20054;-58
2021/05/24 03:45:06;;;;;;;2.95;2.05;;;;;;;6.46;90.49;96462.38;4980239;28;20046;-63
2021/05/24 03:47:32;;;;;;;3.80;2.05;;;;;;;6.48;90.38;96451.94;4981389;28;20376;-58
2021/05/24 03:49:57;;;;;;;3.20;1.98;;;;;;;6.39;90.34;96465.69;4978925;28;20046;-58
2021/05/24 03:52:23;;;;;;;3.67;1.83;;;;;;;6.19;91.10;96472.88;4975967;28;20050;-59
2021/05/24 03:54:48;;;;;;;3.53;2.10;;;;;;;6.16;91.76;96475.47;4981096;28;20164;-60
2021/05/24 03:57:13;;;;;;;5.93;1.85;;;;;;;6.27;91.89;96480.13;4973813;28;20542;-61
2021/05/24 03:59:39;;;;;;;2.40;1.63;;;;;;;6.32;91.80;96479.88;4981877;28;20038;-58
2021/05/24 04:02:05;;;;;;;4.07;1.83;;;;;;;6.21;91.36;96476.06;4976962;28;20034;-63
2021/05/24 04:04:30;;;;;;;2.47;1.83;;;;;;;6.03;92.30;96477.44;4980278;28;20042;-59
2021/05/24 04:06:59;;;;;;;2.55;2.10;;;;;;;5.94;92.16;96482.97;4978933;28;20073;-59
2021/05/24 04:09:25;;;;;;;3.42;2.15;;;;;;;5.91;92.08;96480.94;4974129;28;20491;-59
2021/05/24 04:11:50;;;;;;;5.85;2.10;;;;;;;6.01;92.20;96488.66;4982101;28;20396;-60
2021/05/24 04:14:17;;;;;;;4.65;1.92;;;;;;;6.13;92.63;96501.44;4978321;28;20054;-58
2021/05/24 04:16:43;;;;;;;2.83;2.00;;;;;;;6.23;92.26;96502.88;4981879;28;20550;-56
2021/05/24 04:19:11;;;;;;;1.88;1.67;;;;;;;6.36;91.86;96499.03;4973552;28;20364;-60
2021/05/24 04:21:39;;;;;;;3.95;1.90;;;;;;;6.59;90.61;96485.69;4979931;28;20038;-58
2021/05/24 04:24:06;;;;;;;2.67;1.77;;;;;;;6.57;89.78;96479.81;4976235;28;20046;-57
2021/05/24 04:26:32;;;;;;;3.40;1.73;;;;;;;6.55;89.62;96489.44;4981753;28;20073;-58
2021/05/24 04:28:57;;;;;;;4.15;1.65;;;;;;;6.70;89.85;96481.34;4979224;28;20066;-58
2021/05/24 04:31:23;;;;;;;4.68;1.48;;;;;;;6.74;88.85;96496.97;4976706;28;20439;-58
2021/05/24 04:33:49;;;;;;;2.42;1.80;;;;;;;6.72;88.54;96489.16;4980481;28;20133;-56
2021/05/24 04:36:14;;;;;;;1.95;1.45;;;;;;;6.86;88.33;96491.47;4975047;28;20042;-56
2021/05/24 04:38:40;;;;;;;4.75;1.80;;;;;;;6.99;88.26;96495.72;4981373;28;20078;-59
2021/05/24 04:41:06;;;;;;;3.58;1.88;;;;;;;7.07;87.21;96497.50;4972605;28;20503;-59
2021/05/24 04:43:32;;;;;;;4.10;1.48;;;;;;;7.15;87.05;96490.31;4978138;28;20137;-57
2021/05/24 04:45:57;;;;;;;2.58;2.03;;;;;;;7.21;86.52;96504.47;4980196;28;20053;-58
2021/05/24 04:48:23;;;;;;;2.95;1.58;;;;;;;7.19;86.24;96507.53;4975623;28;20050;-60
2021/05/24 04:50:48;;;;;;;2.35;1.73;;;;;;;7.09;86.94;96475.34;4979432;28;20042;-59
2021/05/24 04:53:14;;;;;;;4.28;1.52;;;;;;;7.10;86.47;96484.34;4974271;28;20045;-59
2021/05/24 04:55:39;;;;;;;5.05;1.60;;;;;;;7.10;87.10;96484.34;4981234;28;20034;-57
2021/05/24 04:58:06;;;;;;;6.13;1.90;;;;;;;7.04;87.17;96470.97;4973593;28;20046;-61
2021/05/24 05:00:33;;;;;;;2.08;1.65;;;;;;;7.03;87.38;96483.00;4980735;28;20504;-56
2021/05/24 05:02:59;;;;;;;2.63;1.55;;;;;;;7.09;87.43;96488.97;4982276;28;20046;-61
2021/05/24 05:05:25;;;;;;;2.30;1.70;;;;;;;7.33;86.58;96496.22;4988624;28;20046;-61
2021/05/24 05:07:50;;;;;;;5.45;1.38;;;;;;;7.47;86.34;96506.69;4992998;28;20042;-61
2021/05/24 05:10:16;;;;;;;1.90;1.52;;;;;;;7.54;85.34;96511.53;5002771;28;20050;-59
2021/05/24 05:12:41;;;;;;;2.53;1.30;;;;;;;7.57;85.35;96499.94;5010888;28;20456;-60
2021/05/24 05:15:07;;;;;;;3.38;1.50;;;;;;;7.64;85.47;96497.38;4991551;28;20050;-60
2021/05/24 05:17:33;;;;;;;3.38;1.70;;;;;;;7.76;85.06;96485.56;4997023;28;20050;-61
2021/05/24 05:19:58;;;;;;;2.97;1.73;;;;;;;7.83;84.72;96474.84;4997098;28;20038;-60
2021/05/24 05:22:24;;;;;;;4.45;1.90;;;;;;;7.74;84.42;96469.59;4993669;28;20038;-59
2021/05/24 05:24:49;;;;;;;2.65;1.55;;;;;;;7.91;84.80;96476.59;4993250;28;20046;-59
2021/05/24 05:27:15;;;;;;;4.28;1.60;;;;;;;8.04;84.29;96472.59;4984106;28;20043;-60
2021/05/24 05:29:40;;;;;;;4.05;1.70;;;;;;;8.24;83.99;96469.91;4986894;28;20073;-57
2021/05/24 05:32:05;;;;;;;2.33;1.95;;;;;;;8.29;83.02;96466.91;4979319;28;20399;-59
2021/05/24 05:34:31;;;;;;;4.03;2.00;;;;;;;8.32;83.53;96463.47;4983908;28;20097;-57
2021/05/24 05:36:56;;;;;;;2.38;1.52;;;;;;;8.78;82.25;96462.84;4984282;28;20070;-58
2021/05/24 05:39:22;;;;;;;3.28;1.70;;;;;;;9.07;81.04;96468.84;4978884;28;20057;-56
2021/05/24 05:41:47;;;;;;;3.95;1.60;;;;;;;9.18;78.60;96473.38;4984240;28;20042;-56
2021/05/24 05:44:12;;;;;;;3.70;1.77;;;;;;;9.29;77.59;96472.75;4977149;28;20745;-56
2021/05/24 05:46:38;;;;;;;4.05;1.67;;;;;;;9.35;77.70;96474.84;4982802;28;20129;-56
2021/05/24 05:49:04;;;;;;;8.27;3.45;;;;;;;9.41;76.93;96467.13;4961301;28;20046;-62
2021/05/24 05:51:29;;;;;;;2.22;1.50;;;;;;;9.46;76.10;96479.72;4973242;28;20043;-63
2021/05/24 05:53:58;;;;;;;2.13;1.40;;;;;;;9.40;76.07;96473.75;4976164;28;20500;-58
2021/05/24 05:56:23;;;;;;;3.65;1.60;;;;;;;9.44;76.52;96466.41;4974086;28;20913;-59
2021/05/24 05:58:49;;;;;;;4.07;1.88;;;;;;;9.60;75.49;96466.28;4977966;28;20046;-56
2021/05/24 06:01:14;;;;;;;3.22;1.30;;;;;;;9.65;75.13;96476.91;4976555;28;20050;-56
2021/05/24 06:03:39;;;;;;;4.88;1.40;;;;;;;9.69;74.88;96482.44;4975425;28;20035;-56
2021/05/24 06:06:05;;;;;;;3.80;1.40;;;;;;;9.81;75.13;96473.22;4974627;28;20046;-60
2021/05/24 06:08:31;;;;;;;2.10;1.10;;;;;;;9.86;73.78;96481.91;4980792;28;20570;-61
2021/05/24 06:10:57;;;;;;;3.53;1.30;;;;;;;9.75;74.33;96476.28;4984520;28;20147;-60
2021/05/24 06:13:24;;;;;;;1.88;1.23;;;;;;;9.82;74.35;96486.53;4976976;28;20061;-58
2021/05/24 06:15:49;;;;;;;2.40;1.63;;;;;;;10.09;73.14;96476.41;4983033;28;20057;-63
2021/05/24 06:18:15;;;;;;;5.13;1.63;;;;;;;10.33;71.28;96468.94;4973870;28;20391;-63
2021/05/24 06:20:43;;;;;;;5.05;1.30;;;;;;;10.46;71.88;96483.19;4977417;28;20126;-61
2021/05/24 06:23:09;;;;;;;2.08;1.25;;;;;;;10.61;70.77;96492.38;4976617;28;20062;-62
2021/05/24 06:25:36;;;;;;;2.00;1.10;;;;;;;10.76;70.04;96493.34;4982676;28;20384;-59
2021/05/24 06:28:01;;;;;;;3.22;1.45;;;;;;;10.85;70.09;96486.41;4974459;28;20369;-60
2021/05/24 06:30:27;;;;;;;2.38;1.17;;;;;;;11.26;68.42;96477.47;4973641;28;20053;-59
2021/05/24 06:32:52;;;;;;;1.65;1.10;;;;;;;11.41;67.05;96470.94;4974279;28;20054;-56
2021/05/24 06:35:19;;;;;;;3.80;1.27;;;;;;;11.17;67.80;96483.25;4971043;28;20133;-59
2021/05/24 06:37:45;;;;;;;2.92;1.70;;;;;;;11.33;66.17;96476.75;4975011;28;20046;-59
2021/05/24 06:40:11;;;;;;;2.25;1.08;;;;;;;11.44;65.75;96486.66;4977923;28;20042;-61
2021/05/24 06:42:36;;;;;;;4.10;1.20;;;;;;;11.57;66.44;96478.16;4980474;28;20051;-60
2021/05/24 06:45:04;;;;;;;1.45;1.08;;;;;;;11.55;66.06;96478.53;4981051;28;20042;-64
2021/05/24 06:47:30;;;;;;;1.95;1.15;;;;;;;11.64;65.11;96479.00;4974811;28;20070;-60
2021/05/24 06:49:55;;;;;;;4.28;1.33;;;;;;;11.46;66.17;96478.06;4983027;28;20133;-62
2021/05/24 06:52:21;;;;;;;3.65;1.15;;;;;;;11.47;66.65;96488.66;4976604;28;20045;-60
2021/05/24 06:54:46;;;;;;;2.80;1.40;;;;;;;11.64;66.52;96491.91;4979028;28;20530;-57
2021/05/24 06:57:11;;;;;;;1.02;0.80;;;;;;;11.31;67.25;96481.81;4970323;28;20042;-61
2021/05/24 06:59:37;;;;;;;1.77;1.13;;;;;;;11.66;66.93;96481.34;4981130;28;20105;-57
2021/05/24 07:02:02;;;;;;;6.50;1.90;;;;;;;11.77;66.17;96476.75;4976225;28;20487;-64
2021/05/24 07:04:28;;;;;;;3.90;2.28;;;;;;;11.37;67.17;96478.34;4973185;28;20125;-61
2021/05/24 07:06:54;;;;;;;3.70;1.77;;;;;;;11.66;66.34;96489.59;4982246;28;20057;-57
2021/05/24 07:09:19;;;;;;;2.65;1.17;;;;;;;12.03;65.91;96496.97;4977497;28;20034;-58
2021/05/24 07:11:45;;;;;;;2.63;1.17;;;;;;;12.26;64.69;96487.72;4970113;28;20051;-59
2021/05/24 07:14:11;;;;;;;2.47;0.90;;;;;;;12.40;64.47;96494.06;4968721;28;20133;-61
2021/05/24 07:16:36;;;;;;;1.75;0.90;;;;;;;12.53;64.69;96491.00;4981953;28;20456;-59
2021/05/24 07:19:02;;;;;;;3.20;1.50;;;;;;;12.63;63.79;96490.28;4973493;28;20061;-63
2021/05/24 07:21:27;;;;;;;1.98;1.20;;;;;;;12.84;61.73;96497.84;4978443;28;20523;-60
2021/05/24 07:23:52;;;;;;;2.33;1.02;;;;;;;12.57;61.90;96491.81;4977265;28;20085;-57
2021/05/24 07:26:18;;;;;;;2.28;0.90;;;;;;;12.84;61.33;96477.78;4971060;28;20149;-60
2021/05/24 07:28:43;;;;;;;3.33;1.10;;;;;;;12.84;60.43;96484.09;4979539;28;20043;-56
2021/05/24 07:31:09;;;;;;;3.90;0.90;;;;;;;12.86;60.80;96494.72;4974088;28;20039;-59
2021/05/24 07:33:34;;;;;;;3.95;1.40;;;;;;;12.79;60.11;96500.94;4978049;28;20499;-55
2021/05/24 07:35:59;;;;;;;1.95;1.10;;;;;;;12.83;60.15;96507.25;4981999;28;20112;-60
2021/05/24 07:38:25;;;;;;;2.30;1.10;;;;;;;12.87;60.74;96508.03;4977315;28;20101;-56
2021/05/24 07:40:51;;;;;;;3.90;1.20;;;;;;;12.66;62.02;96513.44;4980825;28;20567;-59
2021/05/24 07:43:17;;;;;;;4.18;1.35;;;;;;;12.57;62.29;96511.06;4966840;28;20038;-59
2021/05/24 07:45:42;;;;;;;1.73;1.02;;;;;;;12.48;63.06;96516.09;4990421;28;20045;-63
2021/05/24 07:48:08;;;;;;;2.80;1.20;;;;;;;12.37;62.62;96513.25;4976219;28;20075;-63
2021/05/24 07:50:33;;;;;;;3.35;1.15;;;;;;;12.10;64.10;96504.47;4984680;28;20174;-59
2021/05/24 07:52:59;;;;;;;1.67;0.82;;;;;;;12.14;62.37;96508.81;4980321;28;20038;-55
2021/05/24 07:55:24;;;;;;;2.97;1.13;;;;;;;11.98;63.16;96489.88;4965543;28;20129;-57
2021/05/24 07:57:49;;;;;;;3.78;1.48;;;;;;;12.07;63.27;96488.78;4981423;28;20133;-61
2021/05/24 08:00:16;;;;;;;3.83;1.02;;;;;;;12.18;63.18;96489.63;4975599;28;20034;-59
2021/05/24 08:02:43;;;;;;;1.85;0.90;;;;;;;12.10;62.14;96486.06;4973445;28;20078;-59
2021/05/24 08:05:11;;;;;;;4.03;1.25;;;;;;;12.18;63.54;96482.16;4957821;28;20054;-61
2021/05/24 08:07:36;;;;;;;2.25;1.05;;;;;;;12.19;63.46;96475.53;4974471;28;20038;-59
2021/05/24 08:10:07;;;;;;;2.28;1.50;;;;;;;12.12;63.63;96471.91;4976933;28;20104;-64
2021/05/24 08:12:37;;;;;;;2.10;1.20;;;;;;;12.24;62.99;96466.94;4964800;28;20070;-60
2021/05/24 08:15:07;;;;;;;4.53;1.92;;;;;;;12.40;63.23;96454.84;4971775;28;20415;-64
2021/05/24 08:17:32;;;;;;;2.45;1.30;;;;;;;12.44;63.15;96452.88;4976117;28;20042;-59
2021/05/24 08:19:57;;;;;;;4.80;1.00;;;;;;;12.29;63.51;96452.03;4981653;28;20818;-62
2021/05/24 08:22:23;;;;;;;3.60;1.40;;;;;;;11.94;65.14;96450.66;4967896;28;20523;-57
2021/05/24 08:24:48;;;;;;;5.05;1.23;;;;;;;12.15;64.39;96449.19;4980634;28;20047;-59
2021/05/24 08:27:14;;;;;;;2.90;1.40;;;;;;;11.96;65.76;96442.03;4968326;28;20046;-62
2021/05/24 08:29:39;;;;;;;3.47;1.13;;;;;;;12.24;66.22;96442.22;4977298;28;20061;-61
2021/05/24 08:32:04;;;;;;;4.18;1.40;;;;;;;12.11;66.35;96440.16;4973611;28;20042;-64
2021/05/24 08:34:30;;;;;;;2.65;1.40;;;;;;;11.72;67.96;96435.16;4970156;28;20512;-62
2021/05/24 08:36:55;;;;;;;3.83;1.80;;;;;;;11.58;66.84;96433.88;4981366;28;20045;-59
2021/05/24 08:39:21;;;;;;;2.15;1.23;;;;;;;11.18;68.12;96429.22;4971452;28;20065;-59
2021/05/24 08:41:47;;;;;;;2.15;1.17;;;;;;;11.32;66.92;96428.56;4972911;28;20055;-61
2021/05/24 08:44:14;;;;;;;2.35;1.13;;;;;;;11.67;66.00;96437.09;4970599;28;20519;-60
2021/05/24 08:46:40;;;;;;;3.20;1.30;;;;;;;12.10;65.15;96436.63;4980540;28;20483;-59
2021/05/24 08:49:06;;;;;;;3.15;1.20;;;;;;;12.40;63.69;96439.13;4967954;28;20100;-60
2021/05/24 08:51:32;;;;;;;3.13;1.60;;;;;;;12.87;61.84;96435.78;4973173;28;20050;-59
2021/05/24 08:53:57;;;;;;;2.70;1.27;;;;;;;12.96;59.13;96438.97;4979493;28;20066;-57
2021/05/24 08:56:23;;;;;;;2.95;1.50;;;;;;;12.95;59.78;96440.94;4969793;28;20997;-59
2021/05/24 08:58:48;;;;;;;6.20;1.60;;;;;;;13.16;58.98;96439.41;4979240;28;20045;-56
2021/05/24 09:01:14;;;;;;;4.85;1.70;;;;;;;13.19;58.90;96438.63;4970038;28;20039;-60
2021/05/24 09:03:41;;;;;;;2.92;1.50;;;;;;;13.48;58.57;96442.22;4978112;28;20046;-57
2021/05/24 09:06:09;;;;;;;3.53;1.50;;;;;;;13.68;58.01;96437.13;4976097;28;20042;-60
2021/05/24 09:08:36;;;;;;;3.92;1.40;;;;;;;13.34;58.55;96450.47;4960636;28;20046;-57
2021/05/24 09:11:02;;;;;;;4.40;1.50;;;;;;;13.78;57.92;96449.31;4980802;28;20054;-59
2021/05/24 09:13:32;;;;;;;6.28;1.75;;;;;;;13.69;57.07;96440.69;4965466;28;20135;-58
2021/05/24 09:15:58;;;;;;;3.47;1.50;;;;;;;13.39;57.79;96448.09;4963491;28;20039;-60
2021/05/24 09:18:24;;;;;;;4.50;2.55;;;;;;;12.88;58.18;96429.13;4958777;28;20042;-61
2021/05/24 09:20:52;;;;;;;6.72;3.03;;;;;;;13.06;58.07;96427.22;4980020;28;20049;-61
2021/05/24 09:23:30;;;;;;;6.28;3.05;;;;;;;13.27;57.55;96437.47;4968782;28;20104;-57
2021/05/24 09:26:14;;;;;;;7.75;2.88;;;;;;;13.48;57.62;96444.97;4972899;28;20562;-56
2021/05/24 09:28:43;;;;;;;3.63;1.90;;;;;;;13.64;57.76;96444.59;4980749;28;20047;-60
2021/05/24 09:31:10;;;;;;;3.85;1.73;;;;;;;13.44;58.81;96433.19;4974648;28;20096;-59
2021/05/24 09:33:38;;;;;;;3.13;1.60;;;;;;;13.21;60.81;96439.03;4971892;28;20082;-59
2021/05/24 09:36:05;;;;;;;2.75;1.50;;;;;;;12.75;62.35;96447.94;4977107;28;20047;-62
2021/05/24 09:38:47;;;;;;;2.70;1.50;;;;;;;12.99;60.44;96449.19;4980658;28;20042;-59
2021/05/24 09:41:14;;;;;;;2.88;1.52;;;;;;;13.18;60.63;96451.59;4975872;28;20050;-56
2021/05/24 09:43:42;;;;;;;3.25;1.27;;;;;;;13.24;59.72;96453.97;4975365;28;20069;-59
2021/05/24 09:46:29;;;;;;;3.88;1.70;;;;;;;13.62;59.99;96460.72;4975487;28;20038;-56
2021/05/24 09:49:00;;;;;;;2.67;1.35;;;;;;;13.50;60.93;96445.38;4980127;28;20435;-57
2021/05/24 09:51:27;;;;;;;7.55;3.47;;;;;;;13.05;62.71;96435.84;4975650;28;20043;-59
2021/05/24 09:54:05;;;;;;;4.00;1.60;;;;;;;13.48;59.71;96438.69;4982216;28;20057;-59
2021/05/24 09:56:33;;;;;;;3.67;1.50;;;;;;;13.68;59.03;96422.59;4976463;28;20504;-59
2021/05/24 09:59:07;;;;;;;2.13;1.23;;;;;;;13.60;59.93;96426.53;4978161;28;20545;-61
2021/05/24 10:01:45;;;;;;;1.70;1.20;;;;;;;13.93;58.90;96417.84;4978719;28;20050;-58
2021/05/24 10:04:13;;;;;;;2.78;1.40;;;;;;;14.23;57.01;96402.84;4975849;28;20079;-54
2021/05/24 10:06:39;;;;;;;2.42;1.30;;;;;;;14.75;55.96;96396.78;4977168;28;20046;-59
2021/05/24 10:09:07;;;;;;;2.40;1.55;;;;;;;12.95;60.15;96387.94;4973017;28;20046;-60
2021/05/24 10:11:33;;;;;;;2.90;1.80;;;;;;;13.53;59.51;96384.06;4976145;28;20780;-61
2021/05/24 10:13:59;;;;;;;3.45;2.22;;;;;;;13.19;59.49;96384.41;4979970;28;20762;-59
2021/05/24 10:16:32;;;;;;;2.22;1.35;;;;;;;13.21;60.77;96381.28;4976474;28;20048;-61
2021/05/24 10:18:58;;;;;;;3.53;1.45;;;;;;;14.04;57.73;96368.25;4980404;28;20136;-56
2021/05/24 10:21:24;;;;;;;5.07;1.50;;;;;;;14.83;55.51;96361.66;4975741;28;20209;-58
2021/05/24 10:23:51;;;;;;;1.73;1.00;;;;;;;14.87;56.13;96351.41;4978453;28;20046;-60
2021/05/24 10:26:18;;;;;;;5.75;2.00;;;;;;;15.10;54.83;96354.38;4968671;28;20035;-60
2021/05/24 10:28:46;;;;;;;4.25;1.60;;;;;;;15.10;54.82;96348.09;4976936;28;20561;-58
2021/05/24 10:31:18;;;;;;;4.30;1.60;;;;;;;15.19;54.45;96355.91;4974323;28;20050;-58
2021/05/24 10:33:45;;;;;;;3.97;1.40;;;;;;;15.10;54.97;96353.63;4979912;28;20145;-59
2021/05/24 10:36:16;;;;;;;2.85;1.25;;;;;;;14.82;54.73;96358.13;4971289;28;20101;-60
2021/05/24 10:38:42;;;;;;;2.97;1.30;;;;;;;15.12;54.30;96361.50;4974661;28;20070;-62
2021/05/24 10:41:12;;;;;;;4.03;1.30;;;;;;;15.29;53.06;96357.81;4980785;28;20070;-59
2021/05/24 10:43:45;;;;;;;2.55;1.40;;;;;;;15.75;51.94;96359.41;4983422;28;20514;-59
2021/05/24 10:46:26;;;;;;;2.92;1.10;;;;;;;16.20;49.93;96333.69;4976654;28;20077;-59
2021/05/24 10:48:58;;;;;;;4.60;1.95;;;;;;;16.38;49.57;96327.97;4982045;28;20193;-60
2021/05/24 10:51:45;;;;;;;5.90;1.73;;;;;;;16.95;49.27;96329.97;4974914;28;20634;-61
2021/05/24 10:54:24;;;;;;;4.03;0.98;;;;;;;17.51;48.05;96329.50;4971099;28;20395;-63
2021/05/24 10:56:59;;;;;;;3.30;1.90;;;;;;;17.69;47.98;96318.09;4971255;28;20179;-64
2021/05/24 10:59:39;;;;;;;2.35;1.33;;;;;;;17.77;46.00;96322.34;4969946;28;20502;-60
2021/05/24 11:02:12;;;;;;;3.83;1.83;;;;;;;18.46;44.75;96310.72;4974926;28;20101;-63
2021/05/24 11:04:55;;;;;;;4.22;1.52;;;;;;;18.46;44.67;96305.19;4983028;28;20065;-60
2021/05/24 11:07:26;;;;;;;5.10;1.10;;;;;;;17.98;45.31;96298.22;4993926;28;20132;-63
2021/05/24 11:09:52;;;;;;;2.97;1.02;;;;;;;18.24;45.48;96293.75;4982501;28;20054;-60
2021/05/24 11:12:31;;;;;;;2.38;0.90;;;;;;;18.57;44.90;96276.44;4973479;28;20038;-64
2021/05/24 11:15:15;;;;;;;13.40;6.30;;;;;;;18.54;43.47;96278.06;4972209;28;20496;-61
2021/05/24 11:18:04;;;;;;;3.78;2.17;;;;;;;18.67;44.45;96276.22;4962261;28;20043;-58
2021/05/24 11:20:30;;;;;;;;;;;;;;;18.16;44.57;96275.69;4961398;28;20045;-57
2021/05/24 11:26:14;;;;;;;1.90;0.90;;;;;;;18.59;43.18;96263.69;4971631;28;20245;-57
2021/05/24 11:28:44;;;;;;;3.25;1.08;;;;;;;18.83;43.90;96260.81;4978693;28;20117;-60
2021/05/24 11:31:15;;;;;;;3.88;0.80;;;;;;;18.88;43.88;96258.31;4977000;28;20038;-59
2021/05/24 11:33:42;;;;;;;4.97;1.40;;;;;;;18.27;45.55;96258.84;4981804;28;20136;-60
2021/05/24 11:36:10;;;;;;;1.27;0.85;;;;;;;17.64;47.69;96265.97;4976603;28;20038;-62
2021/05/24 11:38:36;;;;;;;2.13;1.00;;;;;;;17.21;47.98;96269.50;4981496;28;20043;-62
2021/05/24 11:41:16;;;;;;;1.58;1.10;;;;;;;16.77;48.98;96274.13;4978272;28;20394;-59